sensor_id;sensor_type;location;lat;lon;timestamp;pressure;altitude;pressure_sealevel;temperature;humidity
65553;BME280;52465;51.560;14.368;2022-08-19T00:00:32;99386.31;;;26.94;58.94
65553;BME280;52465;51.560;14.368;2022-08-19T00:02:57;99389.25;;;26.93;59.11
65553;BME280;52465;51.560;14.368;2022-08-19T00:05:23;99380.41;;;26.92;59.13
65553;BME280;52465;51.560;14.368;2022-08-19T00:07:49;99382.28;;;26.92;59.12
65553;BME280;52465;51.560;14.368;2022-08-19T00:10:17;99389.56;;;26.91;59.01
65553;BME280;52465;51.560;14.368;2022-08-19T00:12:42;99396.00;;;26.90;59.13
65553;BME280;52465;51.560;14.368;2022-08-19T00:15:12;99395.72;;;26.92;59.47
65553;BME280;52465;51.560;14.368;2022-08-19T00:17:39;99401.38;;;26.90;59.39
65553;BME280;52465;51.560;14.368;2022-08-19T00:20:06;99399.78;;;26.89;59.55
65553;BME280;52465;51.560;14.368;2022-08-19T00:22:32;99403.28;;;26.89;59.46
65553;BME280;52465;51.560;14.368;2022-08-19T00:24:57;99394.69;;;26.87;59.49
65553;BME280;52465;51.560;14.368;2022-08-19T00:27:22;99400.06;;;26.87;59.30
65553;BME280;52465;51.560;14.368;2022-08-19T00:29:48;99404.63;;;26.87;59.08
65553;BME280;52465;51.560;14.368;2022-08-19T00:32:14;99403.53;;;26.88;59.47
65553;BME280;52465;51.560;14.368;2022-08-19T00:34:39;99397.66;;;26.86;59.10
65553;BME280;52465;51.560;14.368;2022-08-19T00:37:04;99400.06;;;26.87;59.38
65553;BME280;52465;51.560;14.368;2022-08-19T00:39:30;99403.84;;;26.86;59.59
65553;BME280;52465;51.560;14.368;2022-08-19T00:41:55;99408.41;;;26.86;59.06
65553;BME280;52465;51.560;14.368;2022-08-19T00:44:26;99401.94;;;26.87;59.63
65553;BME280;52465;51.560;14.368;2022-08-19T00:46:53;99400.34;;;26.86;59.59
65553;BME280;52465;51.560;14.368;2022-08-19T00:49:23;99396.88;;;26.85;59.38
65553;BME280;52465;51.560;14.368;2022-08-19T00:51:55;99397.66;;;26.86;59.27
65553;BME280;52465;51.560;14.368;2022-08-19T00:54:21;99399.56;;;26.85;59.65
65553;BME280;52465;51.560;14.368;2022-08-19T00:56:47;99397.97;;;26.84;59.53
65553;BME280;52465;51.560;14.368;2022-08-19T00:59:15;99395.03;;;26.81;59.48
65553;BME280;52465;51.560;14.368;2022-08-19T01:01:42;99399.03;;;26.83;59.34
65553;BME280;52465;51.560;14.368;2022-08-19T01:04:08;99395.56;;;26.83;59.54
65553;BME280;52465;51.560;14.368;2022-08-19T01:06:36;99392.88;;;26.83;59.63
65553;BME280;52465;51.560;14.368;2022-08-19T01:09:02;99403.63;;;26.83;59.27
65553;BME280;52465;51.560;14.368;2022-08-19T01:11:30;99403.63;;;26.83;59.31
65553;BME280;52465;51.560;14.368;2022-08-19T01:13:57;99394.22;;;26.80;59.47
65553;BME280;52465;51.560;14.368;2022-08-19T01:16:25;99402.00;;;26.82;59.42
65553;BME280;52465;51.560;14.368;2022-08-19T01:18:52;99402.00;;;26.82;59.33
65553;BME280;52465;51.560;14.368;2022-08-19T01:21:29;99404.97;;;26.80;59.70
65553;BME280;52465;51.560;14.368;2022-08-19T01:23:56;99404.97;;;26.80;59.43
65553;BME280;52465;51.560;14.368;2022-08-19T01:26:23;99398.81;;;26.80;59.67
65553;BME280;52465;51.560;14.368;2022-08-19T01:28:51;99403.38;;;26.79;59.42
65553;BME280;52465;51.560;14.368;2022-08-19T01:31:22;99414.91;;;26.80;59.41
65553;BME280;52465;51.560;14.368;2022-08-19T01:33:50;99413.31;;;26.79;59.56
65553;BME280;52465;51.560;14.368;2022-08-19T01:36:28;99415.47;;;26.77;59.42
65553;BME280;52465;51.560;14.368;2022-08-19T01:38:54;99421.66;;;26.77;59.79
65553;BME280;52465;51.560;14.368;2022-08-19T01:41:20;99413.88;;;26.76;59.52
65553;BME280;52465;51.560;14.368;2022-08-19T01:43:46;99421.94;;;26.76;59.69
65553;BME280;52465;51.560;14.368;2022-08-19T01:46:11;99416.84;;;26.74;59.50
65553;BME280;52465;51.560;14.368;2022-08-19T01:48:39;99420.63;;;26.73;59.52
65553;BME280;52465;51.560;14.368;2022-08-19T01:51:05;99416.34;;;26.72;59.87
65553;BME280;52465;51.560;14.368;2022-08-19T01:53:31;99417.41;;;26.71;60.02
65553;BME280;52465;51.560;14.368;2022-08-19T01:55:56;99402.69;;;26.69;59.76
65553;BME280;52465;51.560;14.368;2022-08-19T01:58:35;99407.50;;;26.72;59.68
65553;BME280;52465;51.560;14.368;2022-08-19T02:01:02;99400.50;;;26.71;59.96
65553;BME280;52465;51.560;14.368;2022-08-19T02:03:28;99402.38;;;26.70;59.82
65553;BME280;52465;51.560;14.368;2022-08-19T02:05:56;99397.00;;;26.70;59.75
65553;BME280;52465;51.560;14.368;2022-08-19T02:08:22;99408.84;;;26.69;59.65
65553;BME280;52465;51.560;14.368;2022-08-19T02:10:48;99398.91;;;26.70;59.91
65553;BME280;52465;51.560;14.368;2022-08-19T02:13:14;99398.91;;;26.70;60.02
65553;BME280;52465;51.560;14.368;2022-08-19T02:15:40;99398.09;;;26.69;59.81
65553;BME280;52465;51.560;14.368;2022-08-19T02:18:06;99402.69;;;26.69;59.64
65553;BME280;52465;51.560;14.368;2022-08-19T02:20:32;99408.84;;;26.69;59.71
65553;BME280;52465;51.560;14.368;2022-08-19T02:22:57;99411.03;;;26.67;59.95
65553;BME280;52465;51.560;14.368;2022-08-19T02:25:22;99423.34;;;26.68;60.02
65553;BME280;52465;51.560;14.368;2022-08-19T02:27:48;99404.84;;;26.67;59.98
65553;BME280;52465;51.560;14.368;2022-08-19T02:30:15;99405.91;;;26.66;59.79
65553;BME280;52465;51.560;14.368;2022-08-19T02:32:41;99405.38;;;26.69;59.85
65553;BME280;52465;51.560;14.368;2022-08-19T02:35:07;99409.44;;;26.66;59.70
65553;BME280;52465;51.560;14.368;2022-08-19T02:37:32;99407.81;;;26.65;59.91
65553;BME280;52465;51.560;14.368;2022-08-19T02:40:16;99405.91;;;26.66;60.35
65553;BME280;52465;51.560;14.368;2022-08-19T02:42:43;99421.28;;;26.60;59.75
65553;BME280;52465;51.560;14.368;2022-08-19T02:45:09;99431.75;;;26.61;60.16
65553;BME280;52465;51.560;14.368;2022-08-19T02:47:34;99440.91;;;26.60;60.09
65553;BME280;52465;51.560;14.368;2022-08-19T02:50:01;99434.69;;;26.60;59.63
65553;BME280;52465;51.560;14.368;2022-08-19T02:52:27;99441.94;;;26.59;60.01
65553;BME280;52465;51.560;14.368;2022-08-19T02:54:53;99441.94;;;26.59;59.97
65553;BME280;52465;51.560;14.368;2022-08-19T02:57:19;99450.00;;;26.59;59.98
65553;BME280;52465;51.560;14.368;2022-08-19T02:59:44;99448.41;;;26.58;60.04
65553;BME280;52465;51.560;14.368;2022-08-19T03:02:09;99447.31;;;26.59;60.31
65553;BME280;52465;51.560;14.368;2022-08-19T03:04:34;99445.72;;;26.58;59.79
65553;BME280;52465;51.560;14.368;2022-08-19T03:07:00;99454.56;;;26.59;60.12
65553;BME280;52465;51.560;14.368;2022-08-19T03:09:25;99456.47;;;26.58;59.96
65553;BME280;52465;51.560;14.368;2022-08-19T03:11:50;99454.88;;;26.57;60.09
65553;BME280;52465;51.560;14.368;2022-08-19T03:14:15;99450.59;;;26.56;60.12
65553;BME280;52465;51.560;14.368;2022-08-19T03:16:47;99450.59;;;26.56;60.18
65553;BME280;52465;51.560;14.368;2022-08-19T03:19:13;99440.13;;;26.55;60.12
65553;BME280;52465;51.560;14.368;2022-08-19T03:21:43;99441.72;;;26.56;60.24
65553;BME280;52465;51.560;14.368;2022-08-19T03:24:10;99443.88;;;26.54;59.99
65553;BME280;52465;51.560;14.368;2022-08-19T03:26:40;99452.72;;;26.54;60.12
65553;BME280;52465;51.560;14.368;2022-08-19T03:29:05;99446.56;;;26.54;60.15
65553;BME280;52465;51.560;14.368;2022-08-19T03:31:31;99451.94;;;26.54;59.99
65553;BME280;52465;51.560;14.368;2022-08-19T03:33:57;99451.13;;;26.53;59.84
65553;BME280;52465;51.560;14.368;2022-08-19T03:36:24;99458.38;;;26.53;60.33
65553;BME280;52465;51.560;14.368;2022-08-19T03:38:54;99462.97;;;26.52;60.03
65553;BME280;52465;51.560;14.368;2022-08-19T03:41:31;99454.09;;;26.52;60.13
65553;BME280;52465;51.560;14.368;2022-08-19T03:43:57;99447.94;;;26.51;59.72
65553;BME280;52465;51.560;14.368;2022-08-19T03:46:27;99444.22;;;26.47;60.06
65553;BME280;52465;51.560;14.368;2022-08-19T03:48:56;99453.59;;;26.50;60.19
65553;BME280;52465;51.560;14.368;2022-08-19T03:51:25;99458.97;;;26.50;60.08
65553;BME280;52465;51.560;14.368;2022-08-19T03:53:52;99460.03;;;26.49;60.16
65553;BME280;52465;51.560;14.368;2022-08-19T03:56:18;99474.53;;;26.48;60.34
65553;BME280;52465;51.560;14.368;2022-08-19T03:58:44;99476.41;;;26.47;59.86
65553;BME280;52465;51.560;14.368;2022-08-19T04:01:18;99481.00;;;26.47;59.82
65553;BME280;52465;51.560;14.368;2022-08-19T04:03:45;99475.63;;;26.47;60.40
65553;BME280;52465;51.560;14.368;2022-08-19T04:06:15;99474.81;;;26.46;60.07
65553;BME280;52465;51.560;14.368;2022-08-19T04:08:43;99461.41;;;26.46;60.25
65553;BME280;52465;51.560;14.368;2022-08-19T04:11:13;99459.81;;;26.45;60.12
65553;BME280;52465;51.560;14.368;2022-08-19T04:13:40;99473.22;;;26.45;60.33
65553;BME280;52465;51.560;14.368;2022-08-19T04:16:06;99472.94;;;26.47;60.21
65553;BME280;52465;51.560;14.368;2022-08-19T04:18:33;99468.66;;;26.46;60.32
65553;BME280;52465;51.560;14.368;2022-08-19T04:20:59;99461.69;;;26.45;60.12
65553;BME280;52465;51.560;14.368;2022-08-19T04:23:25;99467.59;;;26.42;59.92
65553;BME280;52465;51.560;14.368;2022-08-19T04:25:53;99474.56;;;26.43;60.36
65553;BME280;52465;51.560;14.368;2022-08-19T04:28:25;99481.03;;;26.42;59.94
65553;BME280;52465;51.560;14.368;2022-08-19T04:30:53;99474.56;;;26.43;60.27
65553;BME280;52465;51.560;14.368;2022-08-19T04:33:21;99482.63;;;26.43;60.00
65553;BME280;52465;51.560;14.368;2022-08-19T04:35:48;99478.34;;;26.42;60.04
65553;BME280;52465;51.560;14.368;2022-08-19T04:38:16;99466.81;;;26.41;60.34
65553;BME280;52465;51.560;14.368;2022-08-19T04:40:47;99476.72;;;26.41;60.16
65553;BME280;52465;51.560;14.368;2022-08-19T04:43:32;99474.84;;;26.41;60.03
65553;BME280;52465;51.560;14.368;2022-08-19T04:45:58;99467.06;;;26.40;60.25
65553;BME280;52465;51.560;14.368;2022-08-19T04:48:24;99466.25;;;26.39;60.25
65553;BME280;52465;51.560;14.368;2022-08-19T04:50:56;99468.16;;;26.38;60.03
65553;BME280;52465;51.560;14.368;2022-08-19T04:53:28;99464.38;;;26.40;60.13
65553;BME280;52465;51.560;14.368;2022-08-19T04:55:56;99468.94;;;26.39;60.37
65553;BME280;52465;51.560;14.368;2022-08-19T04:58:23;99461.97;;;26.38;60.13
65553;BME280;52465;51.560;14.368;2022-08-19T05:00:48;99474.56;;;26.37;60.51
65553;BME280;52465;51.560;14.368;2022-08-19T05:03:13;99465.72;;;26.37;60.17
65553;BME280;52465;51.560;14.368;2022-08-19T05:05:45;99462.53;;;26.35;60.48
65553;BME280;52465;51.560;14.368;2022-08-19T05:08:14;99460.34;;;26.37;60.41
65553;BME280;52465;51.560;14.368;2022-08-19T05:10:46;99459.56;;;26.36;60.26
65553;BME280;52465;51.560;14.368;2022-08-19T05:13:12;99463.84;;;26.37;60.07
65553;BME280;52465;51.560;14.368;2022-08-19T05:15:37;99466.00;;;26.35;60.27
65553;BME280;52465;51.560;14.368;2022-08-19T05:18:02;99475.41;;;26.38;60.15
65553;BME280;52465;51.560;14.368;2022-08-19T05:20:46;99476.47;;;26.37;60.20
65553;BME280;52465;51.560;14.368;2022-08-19T05:23:30;99479.94;;;26.37;60.39
65553;BME280;52465;51.560;14.368;2022-08-19T05:25:55;99493.66;;;26.36;60.27
65553;BME280;52465;51.560;14.368;2022-08-19T05:28:21;99500.09;;;26.35;60.19
65553;BME280;52465;51.560;14.368;2022-08-19T05:30:47;99499.31;;;26.34;60.01
65553;BME280;52465;51.560;14.368;2022-08-19T05:33:14;99497.72;;;26.33;60.42
65553;BME280;52465;51.560;14.368;2022-08-19T05:35:39;99516.50;;;26.33;60.33
65553;BME280;52465;51.560;14.368;2022-08-19T05:38:07;99517.28;;;26.34;60.07
65553;BME280;52465;51.560;14.368;2022-08-19T05:40:35;99515.69;;;26.33;60.22
65553;BME280;52465;51.560;14.368;2022-08-19T05:43:05;99520.25;;;26.32;60.57
65553;BME280;52465;51.560;14.368;2022-08-19T05:45:31;99518.63;;;26.31;60.29
65553;BME280;52465;51.560;14.368;2022-08-19T05:47:56;99520.25;;;26.32;60.16
65553;BME280;52465;51.560;14.368;2022-08-19T05:50:22;99523.75;;;26.33;60.33
65553;BME280;52465;51.560;14.368;2022-08-19T05:52:47;99524.81;;;26.32;60.42
65553;BME280;52465;51.560;14.368;2022-08-19T05:55:13;99521.06;;;26.33;60.29
65553;BME280;52465;51.560;14.368;2022-08-19T05:57:39;99521.31;;;26.31;60.51
65553;BME280;52465;51.560;14.368;2022-08-19T06:00:05;99534.47;;;26.33;60.37
65553;BME280;52465;51.560;14.368;2022-08-19T06:02:35;99527.25;;;26.28;60.27
65553;BME280;52465;51.560;14.368;2022-08-19T06:05:01;99534.72;;;26.31;60.42
65553;BME280;52465;51.560;14.368;2022-08-19T06:07:27;99535.03;;;26.30;60.33
65553;BME280;52465;51.560;14.368;2022-08-19T06:09:54;99536.63;;;26.31;60.09
65553;BME280;52465;51.560;14.368;2022-08-19T06:12:19;99541.97;;;26.31;60.17
65553;BME280;52465;51.560;14.368;2022-08-19T06:14:44;99550.31;;;26.29;60.31
65553;BME280;52465;51.560;14.368;2022-08-19T06:17:10;99563.44;;;26.31;60.17
65553;BME280;52465;51.560;14.368;2022-08-19T06:19:36;99567.22;;;26.30;60.42
65553;BME280;52465;51.560;14.368;2022-08-19T06:22:04;99568.31;;;26.29;60.43
65553;BME280;52465;51.560;14.368;2022-08-19T06:24:31;99568.81;;;26.31;60.46
65553;BME280;52465;51.560;14.368;2022-08-19T06:26:57;99574.75;;;26.28;60.55
65553;BME280;52465;51.560;14.368;2022-08-19T06:29:25;99569.09;;;26.29;60.65
65553;BME280;52465;51.560;14.368;2022-08-19T06:31:54;99564.81;;;26.28;60.39
65553;BME280;52465;51.560;14.368;2022-08-19T06:34:20;99571.00;;;26.29;60.38
65553;BME280;52465;51.560;14.368;2022-08-19T06:36:50;99582.53;;;26.29;60.34
65553;BME280;52465;51.560;14.368;2022-08-19T06:39:22;99582.81;;;26.28;60.24
65553;BME280;52465;51.560;14.368;2022-08-19T06:41:52;99582.81;;;26.28;60.25
65553;BME280;52465;51.560;14.368;2022-08-19T06:44:19;99587.09;;;26.29;60.28
65553;BME280;52465;51.560;14.368;2022-08-19T06:46:45;99585.50;;;26.28;60.55
65553;BME280;52465;51.560;14.368;2022-08-19T06:49:10;99590.84;;;26.28;60.39
65553;BME280;52465;51.560;14.368;2022-08-19T06:51:43;99592.75;;;26.27;60.27
65553;BME280;52465;51.560;14.368;2022-08-19T06:54:09;99597.03;;;26.28;60.47
65553;BME280;52465;51.560;14.368;2022-08-19T06:56:36;99600.78;;;26.27;60.59
65553;BME280;52465;51.560;14.368;2022-08-19T06:59:04;99601.84;;;26.26;60.48
65553;BME280;52465;51.560;14.368;2022-08-19T07:01:33;99616.34;;;26.25;60.09
65553;BME280;52465;51.560;14.368;2022-08-19T07:03:59;99625.19;;;26.26;60.33
65553;BME280;52465;51.560;14.368;2022-08-19T07:06:26;99630.56;;;26.26;60.53
65553;BME280;52465;51.560;14.368;2022-08-19T07:08:51;99624.97;;;26.22;60.22
65553;BME280;52465;51.560;14.368;2022-08-19T07:11:17;99624.41;;;26.25;60.59
65553;BME280;52465;51.560;14.368;2022-08-19T07:13:44;99635.94;;;26.26;60.63
65553;BME280;52465;51.560;14.368;2022-08-19T07:16:14;99634.34;;;26.25;60.59
65553;BME280;52465;51.560;14.368;2022-08-19T07:18:39;99625.47;;;26.24;60.49
65553;BME280;52465;51.560;14.368;2022-08-19T07:21:13;99622.78;;;26.24;60.47
65553;BME280;52465;51.560;14.368;2022-08-19T07:23:40;99623.59;;;26.25;60.37
65553;BME280;52465;51.560;14.368;2022-08-19T07:26:13;99628.16;;;26.24;60.30
65553;BME280;52465;51.560;14.368;2022-08-19T07:28:39;99628.16;;;26.24;60.48
65553;BME280;52465;51.560;14.368;2022-08-19T07:31:06;99628.16;;;26.24;60.75
65553;BME280;52465;51.560;14.368;2022-08-19T07:33:33;99633.81;;;26.23;60.36
65553;BME280;52465;51.560;14.368;2022-08-19T07:36:03;99642.66;;;26.23;60.38
65553;BME280;52465;51.560;14.368;2022-08-19T07:38:28;99647.22;;;26.23;60.70
65553;BME280;52465;51.560;14.368;2022-08-19T07:40:54;99646.44;;;26.22;60.36
65553;BME280;52465;51.560;14.368;2022-08-19T07:43:19;99649.38;;;26.21;60.47
65553;BME280;52465;51.560;14.368;2022-08-19T07:45:45;99655.81;;;26.20;60.53
65553;BME280;52465;51.560;14.368;2022-08-19T07:48:12;99664.66;;;26.20;60.72
65553;BME280;52465;51.560;14.368;2022-08-19T07:50:38;99655.56;;;26.21;60.58
65553;BME280;52465;51.560;14.368;2022-08-19T07:53:03;99652.63;;;26.18;60.67
65553;BME280;52465;51.560;14.368;2022-08-19T07:55:28;99646.16;;;26.19;60.82
65553;BME280;52465;51.560;14.368;2022-08-19T07:57:54;99663.34;;;26.18;60.81
65553;BME280;52465;51.560;14.368;2022-08-19T08:00:19;99679.44;;;26.18;60.83
65553;BME280;52465;51.560;14.368;2022-08-19T08:02:45;99676.75;;;26.18;60.53
65553;BME280;52465;51.560;14.368;2022-08-19T08:05:11;99668.44;;;26.14;60.90
65553;BME280;52465;51.560;14.368;2022-08-19T08:07:55;99675.16;;;26.17;60.84
65553;BME280;52465;51.560;14.368;2022-08-19T08:10:39;99681.31;;;26.17;60.65
65553;BME280;52465;51.560;14.368;2022-08-19T08:13:04;99673.56;;;26.16;60.84
65553;BME280;52465;51.560;14.368;2022-08-19T08:15:30;99676.25;;;26.16;60.51
65553;BME280;52465;51.560;14.368;2022-08-19T08:17:56;99679.97;;;26.15;60.87
65553;BME280;52465;51.560;14.368;2022-08-19T08:20:22;99681.84;;;26.14;60.71
65553;BME280;52465;51.560;14.368;2022-08-19T08:22:48;99682.66;;;26.15;60.57
65553;BME280;52465;51.560;14.368;2022-08-19T08:25:33;99683.75;;;26.14;60.52
65553;BME280;52465;51.560;14.368;2022-08-19T08:28:00;99688.31;;;26.13;60.64
65553;BME280;52465;51.560;14.368;2022-08-19T08:30:26;99695.28;;;26.14;60.72
65553;BME280;52465;51.560;14.368;2022-08-19T08:32:52;99695.28;;;26.14;60.78
65553;BME280;52465;51.560;14.368;2022-08-19T08:35:20;99693.66;;;26.13;60.79
65553;BME280;52465;51.560;14.368;2022-08-19T08:37:47;99687.78;;;26.11;60.86
65553;BME280;52465;51.560;14.368;2022-08-19T08:42:59;99684.81;;;26.13;60.79
65553;BME280;52465;51.560;14.368;2022-08-19T08:45:28;99676.28;;;26.05;60.81
65553;BME280;52465;51.560;14.368;2022-08-19T08:47:56;99693.97;;;26.11;60.66
65553;BME280;52465;51.560;14.368;2022-08-19T08:50:38;99693.97;;;26.11;60.87
65553;BME280;52465;51.560;14.368;2022-08-19T08:53:07;99691.56;;;26.10;60.62
65553;BME280;52465;51.560;14.368;2022-08-19T08:55:34;99699.31;;;26.11;60.56
65553;BME280;52465;51.560;14.368;2022-08-19T08:58:03;99701.19;;;26.11;60.63
65553;BME280;52465;51.560;14.368;2022-08-19T09:00:33;99706.56;;;26.11;60.91
65553;BME280;52465;51.560;14.368;2022-08-19T09:03:00;99702.00;;;26.11;60.62
65553;BME280;52465;51.560;14.368;2022-08-19T09:05:35;99692.34;;;26.10;60.72
65553;BME280;52465;51.560;14.368;2022-08-19T09:08:07;99678.94;;;26.10;60.53
65553;BME280;52465;51.560;14.368;2022-08-19T09:10:44;99692.34;;;26.10;60.62
65553;BME280;52465;51.560;14.368;2022-08-19T09:13:20;99702.00;;;26.11;60.66
65553;BME280;52465;51.560;14.368;2022-08-19T09:16:02;99694.47;;;26.14;60.98
65553;BME280;52465;51.560;14.368;2022-08-19T09:18:41;99692.34;;;26.10;60.54
65553;BME280;52465;51.560;14.368;2022-08-19T09:21:07;99708.16;;;26.12;60.62
65553;BME280;52465;51.560;14.368;2022-08-19T09:23:34;99707.38;;;26.11;60.67
65553;BME280;52465;51.560;14.368;2022-08-19T09:25:59;99708.44;;;26.10;60.78
65553;BME280;52465;51.560;14.368;2022-08-19T09:28:24;99697.97;;;26.09;60.88
65553;BME280;52465;51.560;14.368;2022-08-19T09:30:51;99701.47;;;26.09;60.90
65553;BME280;52465;51.560;14.368;2022-08-19T09:33:16;99705.22;;;26.08;60.93
65553;BME280;52465;51.560;14.368;2022-08-19T09:35:42;99699.84;;;26.08;60.70
65553;BME280;52465;51.560;14.368;2022-08-19T09:38:07;99688.31;;;26.08;60.77
65553;BME280;52465;51.560;14.368;2022-08-19T09:40:33;99696.66;;;26.06;60.98
65553;BME280;52465;51.560;14.368;2022-08-19T09:42:58;99686.19;;;26.05;60.65
65553;BME280;52465;51.560;14.368;2022-08-19T09:45:28;99698.53;;;26.06;60.76
65553;BME280;52465;51.560;14.368;2022-08-19T09:47:53;99708.97;;;26.07;60.72
65553;BME280;52465;51.560;14.368;2022-08-19T09:50:19;99701.22;;;26.06;60.81
65553;BME280;52465;51.560;14.368;2022-08-19T09:52:45;99702.81;;;26.07;60.95
65553;BME280;52465;51.560;14.368;2022-08-19T09:55:11;99698.53;;;26.06;60.62
65553;BME280;52465;51.560;14.368;2022-08-19T09:57:36;99700.41;;;26.05;60.72
65553;BME280;52465;51.560;14.368;2022-08-19T10:00:08;99700.41;;;26.05;61.13
65553;BME280;52465;51.560;14.368;2022-08-19T10:05:04;99688.59;;;26.06;61.04
65553;BME280;52465;51.560;14.368;2022-08-19T10:07:48;99645.22;;;25.79;60.76
65553;BME280;52465;51.560;14.368;2022-08-19T10:10:13;99653.25;;;25.89;61.00
65553;BME280;52465;51.560;14.368;2022-08-19T10:12:38;99669.31;;;25.99;61.10
65553;BME280;52465;51.560;14.368;2022-08-19T10:15:05;99630.50;;;25.76;61.03
65553;BME280;52465;51.560;14.368;2022-08-19T10:17:31;99670.34;;;26.03;61.05
65553;BME280;52465;51.560;14.368;2022-08-19T10:19:58;99650.00;;;25.97;60.95
65553;BME280;52465;51.560;14.368;2022-08-19T10:22:23;99612.53;;;25.77;60.86
65553;BME280;52465;51.560;14.368;2022-08-19T10:24:49;99656.13;;;26.03;60.97
65553;BME280;52465;51.560;14.368;2022-08-19T10:27:14;99677.59;;;26.08;60.92
65553;BME280;52465;51.560;14.368;2022-08-19T10:29:40;99692.09;;;26.07;60.70
65553;BME280;52465;51.560;14.368;2022-08-19T10:32:07;99703.34;;;26.09;60.71
65553;BME280;52465;51.560;14.368;2022-08-19T10:34:35;99708.44;;;26.10;60.71
65553;BME280;52465;51.560;14.368;2022-08-19T10:37:02;99700.66;;;26.09;60.69
65553;BME280;52465;51.560;14.368;2022-08-19T10:39:30;99705.22;;;26.08;60.92
65553;BME280;52465;51.560;14.368;2022-08-19T10:41:56;99722.13;;;26.09;61.09
65553;BME280;52465;51.560;14.368;2022-08-19T10:44:22;99717.59;;;26.09;60.71
65553;BME280;52465;51.560;14.368;2022-08-19T10:46:48;99718.63;;;26.08;60.96
65553;BME280;52465;51.560;14.368;2022-08-19T10:49:13;99724.00;;;26.08;60.67
65553;BME280;52465;51.560;14.368;2022-08-19T10:51:42;99721.31;;;26.08;60.83
65553;BME280;52465;51.560;14.368;2022-08-19T10:54:26;99728.31;;;26.09;60.67
65553;BME280;52465;51.560;14.368;2022-08-19T10:57:12;99728.31;;;26.09;60.78
65553;BME280;52465;51.560;14.368;2022-08-19T10:59:37;99733.69;;;26.09;60.74
65553;BME280;52465;51.560;14.368;2022-08-19T11:02:05;99734.47;;;26.10;60.94
65553;BME280;52465;51.560;14.368;2022-08-19T11:04:32;99743.56;;;26.09;60.59
65553;BME280;52465;51.560;14.368;2022-08-19T11:06:58;99745.47;;;26.08;60.80
65553;BME280;52465;51.560;14.368;2022-08-19T11:09:25;99745.22;;;26.10;61.00
65553;BME280;52465;51.560;14.368;2022-08-19T11:11:52;99743.56;;;26.09;60.94
65553;BME280;52465;51.560;14.368;2022-08-19T11:14:19;99754.31;;;26.09;60.81
65553;BME280;52465;51.560;14.368;2022-08-19T11:16:47;99748.13;;;26.08;60.65
65553;BME280;52465;51.560;14.368;2022-08-19T11:19:13;99742.78;;;26.08;60.89
65553;BME280;52465;51.560;14.368;2022-08-19T11:21:43;99762.63;;;26.07;60.86
65553;BME280;52465;51.560;14.368;2022-08-19T11:24:12;99761.84;;;26.07;60.97
65553;BME280;52465;51.560;14.368;2022-08-19T11:26:40;99766.41;;;26.06;60.77
65553;BME280;52465;51.560;14.368;2022-08-19T11:29:07;99772.56;;;26.07;60.92
65553;BME280;52465;51.560;14.368;2022-08-19T11:31:37;99768.28;;;26.06;60.94
65553;BME280;52465;51.560;14.368;2022-08-19T11:34:05;99770.97;;;26.06;61.08
65553;BME280;52465;51.560;14.368;2022-08-19T11:36:32;99774.44;;;26.06;60.94
65553;BME280;52465;51.560;14.368;2022-08-19T11:38:58;99775.53;;;26.05;61.01
65553;BME280;52465;51.560;14.368;2022-08-19T11:41:24;99777.41;;;26.05;60.84
65553;BME280;52465;51.560;14.368;2022-08-19T11:43:51;99777.94;;;26.07;60.86
65553;BME280;52465;51.560;14.368;2022-08-19T11:46:17;99780.88;;;26.05;61.14
65553;BME280;52465;51.560;14.368;2022-08-19T11:48:44;99781.16;;;26.04;60.79
65553;BME280;52465;51.560;14.368;2022-08-19T11:51:15;99788.94;;;26.05;60.88
65553;BME280;52465;51.560;14.368;2022-08-19T11:53:41;99783.03;;;26.03;61.07
65553;BME280;52465;51.560;14.368;2022-08-19T11:56:08;99756.75;;;25.85;60.71
65553;BME280;52465;51.560;14.368;2022-08-19T11:58:34;99786.53;;;26.04;60.83
65553;BME280;52465;51.560;14.368;2022-08-19T12:00:59;99796.19;;;26.05;60.92
65553;BME280;52465;51.560;14.368;2022-08-19T12:03:25;99793.75;;;26.03;60.85
65553;BME280;52465;51.560;14.368;2022-08-19T12:05:51;99802.63;;;26.04;60.93
65553;BME280;52465;51.560;14.368;2022-08-19T12:08:17;99797.25;;;26.04;61.11
65553;BME280;52465;51.560;14.368;2022-08-19T12:10:43;99798.31;;;26.03;61.12
65553;BME280;52465;51.560;14.368;2022-08-19T12:13:11;99791.06;;;26.03;60.92
65553;BME280;52465;51.560;14.368;2022-08-19T12:15:39;99788.38;;;26.03;61.18
65553;BME280;52465;51.560;14.368;2022-08-19T12:18:11;99791.06;;;26.03;60.59
65553;BME280;52465;51.560;14.368;2022-08-19T12:20:38;99791.34;;;26.02;60.61
65553;BME280;52465;51.560;14.368;2022-08-19T12:23:05;99798.06;;;25.99;60.79
65553;BME280;52465;51.560;14.368;2022-08-19T12:25:31;99804.50;;;25.93;60.78
65553;BME280;52465;51.560;14.368;2022-08-19T12:27:57;99802.06;;;25.92;60.95
65553;BME280;52465;51.560;14.368;2022-08-19T12:30:22;99797.00;;;25.90;60.96
65553;BME280;52465;51.560;14.368;2022-08-19T12:32:47;99795.38;;;25.89;60.94
65553;BME280;52465;51.560;14.368;2022-08-19T12:35:12;99795.91;;;25.86;60.65
65553;BME280;52465;51.560;14.368;2022-08-19T12:37:39;99798.06;;;25.84;60.98
65553;BME280;52465;51.560;14.368;2022-08-19T12:40:10;99802.34;;;25.80;60.85
65553;BME280;52465;51.560;14.368;2022-08-19T12:42:37;99796.97;;;25.75;60.87
65553;BME280;52465;51.560;14.368;2022-08-19T12:45:08;99802.06;;;25.71;61.27
65553;BME280;52465;51.560;14.368;2022-08-19T12:47:33;99796.16;;;25.69;61.12
65553;BME280;52465;51.560;14.368;2022-08-19T12:49:59;99802.59;;;25.68;61.20
65553;BME280;52465;51.560;14.368;2022-08-19T12:52:25;99808.50;;;25.65;61.15
65553;BME280;52465;51.560;14.368;2022-08-19T12:54:53;99807.13;;;25.63;61.09
65553;BME280;52465;51.560;14.368;2022-08-19T12:57:19;99806.88;;;25.64;61.25